createdAt,value
2023-01-13T00:00:50.792Z,1.90
2023-01-13T00:03:22.963Z,2.47
2023-01-13T00:05:49.678Z,2.35
2023-01-13T00:08:16.588Z,1.98
2023-01-13T00:10:46.926Z,2.28
2023-01-13T00:13:14.114Z,1.90
2023-01-13T00:15:40.810Z,1.77
2023-01-13T00:18:07.868Z,2.03
2023-01-13T00:20:34.533Z,2.05
2023-01-13T00:23:01.706Z,1.80
2023-01-13T00:25:28.491Z,1.90
2023-01-13T00:27:55.504Z,1.63
2023-01-13T00:30:22.167Z,1.38
2023-01-13T00:32:49.134Z,1.58
2023-01-13T00:35:15.852Z,2.40
2023-01-13T00:37:42.831Z,1.42
2023-01-13T00:40:10.324Z,1.60
2023-01-13T00:42:56.023Z,1.63
2023-01-13T00:45:22.727Z,1.95
2023-01-13T00:47:49.684Z,1.52
2023-01-13T00:50:16.528Z,1.50
2023-01-13T00:52:43.524Z,1.60
2023-01-13T00:55:10.244Z,1.60
2023-01-13T00:57:37.233Z,1.63
2023-01-13T01:00:04.457Z,1.35
2023-01-13T01:02:31.504Z,1.48
2023-01-13T01:05:09.895Z,2.28
2023-01-13T01:07:36.881Z,1.83
2023-01-13T01:10:03.861Z,1.90
2023-01-13T01:12:30.836Z,1.05
2023-01-13T01:14:57.478Z,1.63
2023-01-13T01:17:24.514Z,1.25
2023-01-13T01:19:51.211Z,1.52
2023-01-13T01:22:18.191Z,1.70
2023-01-13T01:24:44.842Z,1.35
2023-01-13T01:27:11.812Z,1.23
2023-01-13T01:29:38.516Z,1.95
2023-01-13T01:32:05.821Z,1.65
2023-01-13T01:34:32.628Z,2.15
2023-01-13T01:36:59.591Z,1.98
2023-01-13T01:39:26.259Z,2.05
2023-01-13T01:42:11.719Z,1.88
2023-01-13T01:44:56.967Z,2.28
2023-01-13T01:47:24.007Z,1.85
2023-01-13T01:49:50.745Z,1.98
2023-01-13T01:52:29.227Z,1.88
2023-01-13T01:55:08.868Z,1.85
2023-01-13T01:57:35.863Z,1.67
2023-01-13T02:00:03.973Z,1.73
2023-01-13T02:02:31.008Z,1.73
2023-01-13T02:04:57.799Z,2.00
2023-01-13T02:07:29.702Z,2.25
2023-01-13T02:09:56.925Z,2.00
2023-01-13T02:12:30.076Z,2.22
2023-01-13T02:14:58.934Z,2.10
2023-01-13T02:17:50.581Z,1.88
2023-01-13T02:20:26.034Z,1.70
2023-01-13T02:22:58.778Z,2.25
2023-01-13T02:25:34.680Z,2.25
2023-01-13T02:28:23.086Z,2.47
2023-01-13T02:31:25.975Z,2.00
2023-01-13T02:34:04.946Z,2.75
2023-01-13T02:36:52.353Z,2.10
2023-01-13T02:39:23.885Z,2.30
2023-01-13T02:42:16.325Z,2.20
2023-01-13T02:44:48.494Z,2.25
2023-01-13T02:47:18.915Z,2.28
2023-01-13T02:50:09.012Z,2.35
2023-01-13T02:52:53.149Z,2.70
2023-01-13T02:55:26.839Z,2.42
2023-01-13T02:57:53.500Z,2.45
2023-01-13T03:00:20.611Z,3.25
2023-01-13T03:02:48.688Z,2.58
2023-01-13T03:05:16.208Z,2.63
2023-01-13T03:08:04.870Z,2.45
2023-01-13T03:10:50.116Z,2.63
2023-01-13T03:13:33.163Z,3.22
2023-01-13T03:16:03.970Z,2.85
2023-01-13T03:18:41.528Z,2.83
2023-01-13T03:21:17.586Z,2.78
2023-01-13T03:24:09.762Z,3.35
2023-01-13T03:26:43.964Z,2.97
2023-01-13T03:29:30.355Z,3.40
2023-01-13T03:32:14.608Z,2.88
2023-01-13T03:34:50.570Z,3.17
2023-01-13T03:37:20.923Z,3.55
2023-01-13T03:39:50.692Z,2.92
2023-01-13T03:42:20.772Z,2.90
2023-01-13T03:44:50.948Z,3.35
2023-01-13T03:47:27.904Z,3.25
2023-01-13T03:50:02.018Z,3.08
2023-01-13T03:52:49.509Z,2.87
2023-01-13T03:55:21.157Z,2.97
2023-01-13T03:57:53.955Z,3.65
2023-01-13T04:00:22.695Z,3.17
2023-01-13T04:03:04.493Z,2.95
2023-01-13T04:05:31.593Z,3.05
2023-01-13T04:08:24.982Z,3.28
2023-01-13T04:11:10.150Z,3.30
2023-01-13T04:13:38.189Z,3.10
2023-01-13T04:16:06.355Z,2.85
2023-01-13T04:18:33.757Z,3.08
2023-01-13T04:21:01.257Z,3.17
2023-01-13T04:23:28.620Z,3.28
2023-01-13T04:25:55.419Z,2.88
2023-01-13T04:28:22.603Z,2.97
2023-01-13T04:30:49.317Z,2.42
2023-01-13T04:33:16.899Z,2.42
2023-01-13T04:35:44.364Z,2.80
2023-01-13T04:38:13.427Z,3.55
2023-01-13T04:40:41.000Z,2.47
2023-01-13T04:43:08.010Z,2.15
2023-01-13T04:45:34.824Z,2.88
2023-01-13T04:48:01.901Z,2.40
2023-01-13T04:50:28.638Z,2.97
2023-01-13T04:52:55.740Z,2.22
2023-01-13T04:55:23.298Z,2.50
2023-01-13T04:57:50.332Z,2.85
2023-01-13T05:00:18.392Z,2.92
2023-01-13T05:02:45.367Z,2.85
2023-01-13T05:05:12.186Z,3.22
2023-01-13T05:07:39.194Z,2.83
2023-01-13T05:10:06.269Z,2.45
2023-01-13T05:12:59.481Z,2.53
2023-01-13T05:15:44.910Z,2.60
2023-01-13T05:20:38.617Z,2.72
2023-01-13T05:23:24.205Z,3.22
2023-01-13T05:25:50.914Z,2.78
2023-01-13T05:28:17.880Z,3.15
2023-01-13T05:30:46.153Z,3.05
2023-01-13T05:33:15.284Z,3.08
2023-01-13T05:35:42.736Z,2.55
2023-01-13T05:38:09.690Z,3.05
2023-01-13T05:40:56.444Z,3.38
2023-01-13T05:43:24.766Z,3.28
2023-01-13T05:46:01.929Z,3.13
2023-01-13T05:48:36.783Z,2.85
2023-01-13T05:51:04.190Z,2.95
2023-01-13T05:53:31.179Z,2.53
2023-01-13T05:55:58.015Z,3.22
2023-01-13T05:58:25.839Z,2.83
2023-01-13T06:00:52.775Z,3.35
2023-01-13T06:03:20.254Z,3.28
2023-01-13T06:05:47.571Z,3.30
2023-01-13T06:08:14.655Z,3.05
2023-01-13T06:10:41.342Z,2.90
2023-01-13T06:13:08.400Z,2.88
2023-01-13T06:15:35.086Z,2.80
2023-01-13T06:18:03.306Z,2.53
2023-01-13T06:20:30.011Z,3.05
2023-01-13T06:22:57.105Z,2.67
2023-01-13T06:25:29.758Z,3.10
2023-01-13T06:27:56.902Z,3.08
2023-01-13T06:30:23.568Z,2.80
2023-01-13T06:32:52.814Z,2.83
2023-01-13T06:35:22.468Z,2.70
2023-01-13T06:37:49.783Z,2.85
2023-01-13T06:40:16.484Z,3.08
2023-01-13T06:43:02.208Z,2.90
2023-01-13T06:45:29.043Z,2.55
2023-01-13T06:47:58.432Z,2.40
2023-01-13T06:50:25.390Z,3.35
2023-01-13T06:52:52.335Z,2.75
2023-01-13T06:55:19.007Z,2.70
2023-01-13T06:57:53.352Z,2.92
2023-01-13T07:00:20.676Z,3.10
2023-01-13T07:02:47.890Z,3.00
2023-01-13T07:05:14.971Z,3.00
2023-01-13T07:07:42.029Z,3.30
2023-01-13T07:10:11.291Z,3.20
2023-01-13T07:12:56.985Z,3.13
2023-01-13T07:15:23.799Z,3.72
2023-01-13T07:17:50.900Z,3.33
2023-01-13T07:20:17.833Z,4.05
2023-01-13T07:22:45.102Z,4.43
2023-01-13T07:25:11.968Z,4.75
2023-01-13T07:27:38.910Z,5.47
2023-01-13T07:30:06.289Z,5.45
2023-01-13T07:32:33.660Z,4.72
2023-01-13T07:35:05.354Z,4.82
2023-01-13T07:37:36.240Z,4.78
2023-01-13T07:40:04.417Z,4.32
2023-01-13T07:42:50.010Z,5.07
2023-01-13T07:45:16.753Z,4.10
2023-01-13T07:47:43.729Z,4.05
2023-01-13T07:50:10.941Z,4.07
2023-01-13T07:52:37.900Z,4.63
2023-01-13T07:55:04.860Z,4.18
2023-01-13T07:57:31.895Z,4.68
2023-01-13T07:59:58.629Z,4.13
2023-01-13T08:02:25.750Z,4.50
2023-01-13T08:04:52.589Z,4.57
2023-01-13T08:07:19.864Z,4.43
2023-01-13T08:09:46.642Z,4.65
2023-01-13T08:12:32.241Z,4.63
2023-01-13T08:14:58.959Z,4.63
2023-01-13T08:17:26.030Z,5.38
2023-01-13T08:19:52.732Z,5.40
2023-01-13T08:22:19.779Z,5.70
2023-01-13T08:24:46.510Z,5.85
2023-01-13T08:27:13.469Z,6.18
2023-01-13T08:29:40.178Z,5.53
2023-01-13T08:32:07.234Z,5.00
2023-01-13T08:34:33.936Z,6.18
2023-01-13T08:37:00.929Z,5.68
2023-01-13T08:39:27.709Z,5.90
2023-01-13T08:41:58.602Z,6.00
2023-01-13T08:44:26.435Z,5.30
2023-01-13T08:46:53.612Z,5.07
2023-01-13T08:49:20.278Z,5.97
2023-01-13T08:51:47.280Z,6.07
2023-01-13T08:54:14.155Z,8.00
2023-01-13T08:56:42.542Z,7.60
2023-01-13T08:59:16.345Z,7.40
2023-01-13T09:01:43.818Z,7.78
2023-01-13T09:04:18.680Z,7.45
2023-01-13T09:06:45.923Z,6.93
2023-01-13T09:09:12.751Z,7.65
2023-01-13T09:12:00.712Z,6.93
2023-01-13T09:14:30.870Z,7.25
2023-01-13T09:16:59.351Z,6.80
2023-01-13T09:19:26.898Z,6.63
2023-01-13T09:21:54.757Z,6.45
2023-01-13T09:24:22.767Z,6.50
2023-01-13T09:26:50.062Z,5.70
2023-01-13T09:29:16.872Z,6.28
2023-01-13T09:31:44.355Z,6.22
2023-01-13T09:34:37.392Z,6.18
2023-01-13T09:37:05.387Z,5.63
2023-01-13T09:39:33.178Z,5.07
2023-01-13T09:42:22.421Z,5.72
2023-01-13T09:45:29.239Z,5.80
2023-01-13T09:48:27.950Z,5.30
2023-01-13T09:51:14.413Z,5.20
2023-01-13T09:53:55.776Z,5.82
2023-01-13T09:56:25.505Z,5.30
2023-01-13T09:58:52.599Z,5.25
2023-01-13T10:01:37.487Z,5.57
2023-01-13T10:04:11.375Z,5.20
2023-01-13T10:06:39.127Z,5.40
2023-01-13T10:09:06.144Z,4.47
2023-01-13T10:11:54.548Z,4.60
2023-01-13T10:14:38.203Z,4.25
2023-01-13T10:17:18.039Z,4.50
2023-01-13T10:19:49.073Z,4.03
2023-01-13T10:22:23.757Z,4.28
2023-01-13T10:25:20.481Z,4.10
2023-01-13T10:27:54.164Z,4.38
2023-01-13T10:30:22.451Z,3.45
2023-01-13T10:32:52.231Z,4.82
2023-01-13T10:35:56.942Z,4.50
2023-01-13T10:38:35.872Z,3.47
2023-01-13T10:41:11.997Z,4.57
2023-01-13T10:43:38.670Z,4.22
2023-01-13T10:46:13.581Z,4.53
2023-01-13T10:48:53.838Z,4.93
2023-01-13T10:51:22.226Z,4.22
2023-01-13T10:53:57.378Z,5.00
2023-01-13T10:56:26.636Z,4.90
2023-01-13T10:58:55.360Z,4.63
2023-01-13T11:01:26.552Z,4.97
2023-01-13T11:03:56.060Z,5.35
2023-01-13T11:06:28.641Z,5.20
2023-01-13T11:08:58.362Z,4.70
2023-01-13T11:11:39.357Z,4.63
2023-01-13T11:14:33.735Z,4.65
2023-01-13T11:17:05.658Z,4.95
2023-01-13T11:20:11.660Z,4.60
2023-01-13T11:22:47.326Z,4.72
2023-01-13T11:25:18.592Z,4.25
2023-01-13T11:28:02.736Z,5.72
2023-01-13T11:30:37.314Z,4.97
2023-01-13T11:33:04.972Z,4.40
2023-01-13T11:35:32.070Z,4.93
2023-01-13T11:38:01.971Z,5.20
2023-01-13T11:40:51.581Z,4.82
2023-01-13T11:43:36.567Z,5.20
2023-01-13T11:46:03.263Z,4.90
2023-01-13T11:48:32.470Z,3.95
2023-01-13T11:51:24.332Z,4.82
2023-01-13T11:54:29.951Z,4.63
2023-01-13T11:57:23.821Z,5.18
2023-01-13T11:59:56.965Z,4.82
2023-01-13T12:02:39.659Z,4.47
2023-01-13T12:05:24.978Z,4.78
2023-01-13T12:08:13.610Z,4.97
2023-01-13T12:11:06.779Z,4.70
2023-01-13T12:13:52.038Z,5.53
2023-01-13T12:16:31.649Z,4.88
2023-01-13T12:19:24.668Z,4.97
2023-01-13T12:21:59.408Z,5.20
2023-01-13T12:24:30.746Z,5.80
2023-01-13T12:26:59.965Z,5.28
2023-01-13T12:29:31.412Z,5.68
2023-01-13T12:31:59.455Z,5.38
2023-01-13T12:34:43.663Z,5.88
2023-01-13T12:37:21.992Z,5.22
2023-01-13T12:39:51.415Z,6.25
2023-01-13T12:42:41.046Z,5.03
2023-01-13T12:45:10.893Z,5.05
2023-01-13T12:47:44.760Z,5.57
2023-01-13T12:50:23.889Z,5.30
2023-01-13T12:53:01.097Z,4.80
2023-01-13T12:55:28.433Z,5.10
2023-01-13T12:58:16.226Z,4.65
2023-01-13T13:00:44.779Z,4.53
2023-01-13T13:03:15.475Z,4.88
2023-01-13T13:06:19.867Z,5.03
2023-01-13T13:09:04.476Z,4.75
2023-01-13T13:11:49.965Z,4.93
2023-01-13T13:16:55.145Z,3.92
2023-01-13T13:19:22.251Z,4.50
2023-01-13T13:22:14.195Z,4.38
2023-01-13T13:25:03.893Z,4.55
2023-01-13T13:27:49.360Z,5.15
2023-01-13T13:33:02.577Z,4.55
2023-01-13T13:35:52.368Z,4.88
2023-01-13T13:39:09.698Z,4.63
2023-01-13T13:42:00.796Z,4.60
2023-01-13T13:44:50.772Z,5.45
2023-01-13T13:47:17.925Z,4.57
2023-01-13T13:49:52.308Z,5.40
2023-01-13T13:52:26.685Z,5.30
2023-01-13T13:54:55.868Z,5.93
2023-01-13T13:57:35.215Z,4.60
2023-01-13T14:00:06.309Z,4.45
2023-01-13T14:02:35.999Z,5.00
2023-01-13T14:05:14.935Z,5.00
2023-01-13T14:07:43.961Z,5.38
2023-01-13T14:10:20.294Z,4.60
2023-01-13T14:12:47.467Z,5.20
2023-01-13T14:15:34.342Z,4.88
2023-01-13T14:18:06.093Z,4.68
2023-01-13T14:20:34.524Z,5.15
2023-01-13T14:23:01.816Z,4.43
2023-01-13T14:25:31.901Z,4.25
2023-01-13T14:28:24.679Z,4.50
2023-01-13T14:30:51.681Z,5.13
2023-01-13T14:33:27.205Z,4.28
2023-01-13T14:36:16.065Z,4.70
2023-01-13T14:38:45.676Z,5.28
2023-01-13T14:41:15.469Z,4.38
2023-01-13T14:43:44.240Z,3.47
2023-01-13T14:46:11.089Z,4.60
2023-01-13T14:48:39.516Z,4.10
2023-01-13T14:51:10.787Z,4.40
2023-01-13T14:53:43.771Z,4.68
2023-01-13T14:56:38.591Z,4.25
2023-01-13T14:59:34.525Z,5.93
2023-01-13T15:02:29.436Z,6.05
2023-01-13T15:04:59.272Z,6.32
2023-01-13T15:07:30.493Z,5.53
2023-01-13T15:10:01.747Z,5.68
2023-01-13T15:12:35.906Z,6.38
2023-01-13T15:17:31.200Z,6.13
2023-01-13T15:20:00.826Z,5.50
2023-01-13T15:22:29.066Z,5.07
2023-01-13T15:24:57.436Z,5.25
2023-01-13T15:27:25.843Z,4.97
2023-01-13T15:29:52.965Z,5.53
2023-01-13T15:32:20.471Z,5.20
2023-01-13T15:34:47.870Z,4.68
2023-01-13T15:37:15.465Z,4.78
2023-01-13T15:39:42.977Z,5.63
2023-01-13T15:42:31.053Z,5.10
2023-01-13T15:45:16.679Z,5.22
2023-01-13T15:47:43.529Z,5.35
2023-01-13T15:50:15.101Z,5.63
2023-01-13T15:52:41.966Z,5.93
2023-01-13T15:55:09.272Z,5.78
2023-01-13T15:57:37.570Z,6.40
2023-01-13T16:00:08.287Z,6.68
2023-01-13T16:02:35.088Z,8.45
2023-01-13T16:05:02.145Z,8.73
2023-01-13T16:07:28.962Z,9.10
2023-01-13T16:09:56.403Z,9.10
2023-01-13T16:12:23.217Z,9.38
2023-01-13T16:14:50.336Z,8.73
2023-01-13T16:17:18.908Z,8.55
2023-01-13T16:19:46.106Z,8.38
2023-01-13T16:22:14.386Z,8.65
2023-01-13T16:24:42.015Z,8.27
2023-01-13T16:27:15.902Z,8.77
2023-01-13T16:29:43.423Z,10.85
2023-01-13T16:32:10.235Z,9.63
2023-01-13T16:34:37.377Z,8.93
2023-01-13T16:37:04.313Z,8.48
2023-01-13T16:39:31.364Z,8.27
2023-01-13T16:41:58.207Z,8.63
2023-01-13T16:44:25.367Z,8.95
2023-01-13T16:46:52.233Z,8.10
2023-01-13T16:49:19.358Z,9.13
2023-01-13T16:51:46.220Z,8.73
2023-01-13T16:54:13.431Z,8.45
2023-01-13T16:56:40.267Z,8.43
2023-01-13T16:59:17.033Z,8.93
2023-01-13T17:01:45.048Z,9.15
2023-01-13T17:04:17.126Z,9.75
2023-01-13T17:06:46.945Z,9.55
2023-01-13T17:09:18.722Z,11.18
2023-01-13T17:11:45.474Z,10.55
2023-01-13T17:14:18.470Z,10.55
2023-01-13T17:16:46.731Z,10.18
2023-01-13T17:19:14.181Z,9.68
2023-01-13T17:21:41.181Z,10.50
2023-01-13T17:24:09.660Z,9.65
2023-01-13T17:26:38.148Z,10.38
2023-01-13T17:29:06.555Z,10.48
2023-01-13T17:31:34.240Z,9.00
2023-01-13T17:34:01.933Z,9.80
2023-01-13T17:36:28.747Z,9.32
2023-01-13T17:38:56.037Z,8.63
2023-01-13T17:41:23.449Z,8.77
2023-01-13T17:43:50.742Z,8.20
2023-01-13T17:46:18.662Z,8.52
2023-01-13T17:48:54.876Z,8.85
2023-01-13T17:51:22.950Z,8.38
2023-01-13T17:53:50.055Z,8.57
2023-01-13T17:56:17.243Z,8.68
2023-01-13T17:58:47.169Z,8.55
2023-01-13T18:01:16.364Z,7.63
2023-01-13T18:03:43.557Z,7.40
2023-01-13T18:06:16.572Z,8.55
2023-01-13T18:08:43.639Z,7.63
2023-01-13T18:11:10.493Z,8.75
2023-01-13T18:13:38.965Z,7.82
2023-01-13T18:16:16.257Z,9.55
2023-01-13T18:18:44.385Z,10.48
2023-01-13T18:21:39.914Z,9.45
2023-01-13T18:24:31.146Z,10.13
2023-01-13T18:27:16.479Z,11.30
2023-01-13T18:29:43.684Z,10.20
2023-01-13T18:32:10.590Z,11.95
2023-01-13T18:34:38.142Z,11.02
2023-01-13T18:37:06.210Z,11.32
2023-01-13T18:39:33.307Z,10.50
2023-01-13T18:42:18.803Z,10.38
2023-01-13T18:44:45.907Z,11.73
2023-01-13T18:47:12.672Z,12.93
2023-01-13T18:49:39.741Z,13.18
2023-01-13T18:52:06.506Z,13.70
2023-01-13T18:54:33.791Z,13.10
2023-01-13T18:57:02.816Z,13.15
2023-01-13T18:59:30.041Z,14.45
2023-01-13T19:01:58.024Z,14.57
2023-01-13T19:04:25.250Z,14.80
2023-01-13T19:06:52.128Z,15.75
2023-01-13T19:09:22.766Z,15.27
2023-01-13T19:11:50.531Z,16.98
2023-01-13T19:14:34.103Z,16.10
2023-01-13T19:17:02.437Z,17.88
2023-01-13T19:19:31.513Z,18.75
2023-01-13T19:21:58.360Z,18.40
2023-01-13T19:24:28.267Z,17.80
2023-01-13T19:26:55.139Z,17.50
2023-01-13T19:29:22.334Z,18.08
2023-01-13T19:31:49.156Z,17.00
2023-01-13T19:34:16.424Z,16.73
2023-01-13T19:36:43.401Z,16.20
2023-01-13T19:39:10.536Z,17.42
2023-01-13T19:42:00.560Z,17.30
2023-01-13T19:44:46.296Z,16.05
2023-01-13T19:47:13.099Z,14.63
2023-01-13T19:49:40.245Z,14.80
2023-01-13T19:52:07.130Z,14.45
2023-01-13T19:54:34.300Z,14.43
2023-01-13T19:57:01.232Z,13.90
2023-01-13T19:59:32.511Z,14.55
2023-01-13T20:02:00.669Z,14.15
2023-01-13T20:04:38.423Z,13.25
2023-01-13T20:07:05.981Z,12.75
2023-01-13T20:09:34.042Z,13.57
2023-01-13T20:12:06.795Z,12.50
2023-01-13T20:14:33.894Z,11.88
2023-01-13T20:17:01.288Z,13.57
2023-01-13T20:19:28.406Z,12.68
2023-01-13T20:21:55.241Z,12.90
2023-01-13T20:24:23.284Z,14.18
2023-01-13T20:26:50.109Z,12.60
2023-01-13T20:29:17.204Z,12.80
2023-01-13T20:31:44.105Z,11.95
2023-01-13T20:34:11.196Z,12.40
2023-01-13T20:36:39.060Z,12.35
2023-01-13T20:39:06.695Z,12.60
2023-01-13T20:41:52.107Z,13.20
2023-01-13T20:44:19.407Z,12.55
2023-01-13T20:46:46.290Z,13.07
2023-01-13T20:49:13.951Z,11.43
2023-01-13T20:51:41.623Z,12.05
2023-01-13T20:54:09.295Z,13.63
2023-01-13T20:56:36.643Z,12.27
2023-01-13T20:59:03.848Z,12.25
2023-01-13T21:01:32.251Z,13.20
2023-01-13T21:04:00.001Z,11.68
2023-01-13T21:06:27.990Z,12.85
2023-01-13T21:08:55.850Z,11.57
2023-01-13T21:11:42.529Z,12.00
2023-01-13T21:14:35.988Z,11.85
2023-01-13T21:17:03.305Z,12.40
2023-01-13T21:19:30.210Z,12.90
2023-01-13T21:21:57.287Z,13.00
2023-01-13T21:24:24.880Z,12.18
2023-01-13T21:27:01.071Z,12.52
2023-01-13T21:29:27.929Z,12.13
2023-01-13T21:31:56.208Z,12.27
2023-01-13T21:34:23.013Z,12.45
2023-01-13T21:36:50.106Z,12.00
2023-01-13T21:39:16.926Z,11.18
2023-01-13T21:42:02.655Z,11.57
2023-01-13T21:44:48.170Z,11.52
2023-01-13T21:50:01.434Z,13.23
2023-01-13T21:52:28.615Z,11.68
2023-01-13T21:55:14.076Z,12.15
2023-01-13T22:00:08.583Z,13.48
2023-01-13T22:02:36.525Z,11.70
2023-01-13T22:05:04.843Z,12.35
2023-01-13T22:07:34.713Z,12.43
2023-01-13T22:10:03.619Z,12.68
2023-01-13T22:12:30.789Z,13.23
2023-01-13T22:14:57.610Z,10.90
2023-01-13T22:17:26.063Z,11.60
2023-01-13T22:19:54.300Z,11.70
2023-01-13T22:22:21.644Z,12.98
2023-01-13T22:24:49.914Z,10.43
2023-01-13T22:27:22.057Z,10.75
2023-01-13T22:29:49.668Z,10.57
2023-01-13T22:32:16.795Z,10.80
2023-01-13T22:34:43.640Z,10.95
2023-01-13T22:37:10.875Z,9.70
2023-01-13T22:39:37.950Z,10.02
2023-01-13T22:42:05.304Z,10.45
2023-01-13T22:44:32.946Z,10.82
2023-01-13T22:47:00.284Z,9.60
2023-01-13T22:49:27.157Z,9.10
2023-01-13T22:51:54.399Z,9.60
2023-01-13T22:54:21.558Z,9.40
2023-01-13T22:56:48.691Z,8.75
2023-01-13T22:59:16.099Z,9.02
2023-01-13T23:01:43.532Z,10.27
2023-01-13T23:04:11.840Z,9.23
2023-01-13T23:06:39.076Z,9.80
2023-01-13T23:09:06.102Z,8.70
2023-01-13T23:11:33.295Z,8.93
2023-01-13T23:14:02.084Z,9.15
2023-01-13T23:16:29.741Z,9.30
2023-01-13T23:21:41.087Z,8.88
2023-01-13T23:24:08.099Z,9.88
2023-01-13T23:26:35.365Z,9.48
2023-01-13T23:29:04.511Z,9.18
2023-01-13T23:31:31.677Z,8.57
2023-01-13T23:33:58.568Z,9.60
2023-01-13T23:36:26.420Z,8.25
2023-01-13T23:38:53.314Z,9.25
2023-01-13T23:41:31.707Z,9.02
2023-01-13T23:43:59.932Z,9.18
2023-01-13T23:46:28.482Z,9.23
2023-01-13T23:48:55.616Z,9.50
2023-01-13T23:51:22.870Z,8.60
2023-01-13T23:53:50.142Z,8.63
2023-01-13T23:56:19.217Z,8.98
2023-01-13T23:58:46.240Z,8.50
